< Typhoon 196314 1963 Season Typhoon 196316 >
Typhoon 196315 (HESTER)
General InformationTrack Information on Google Maps || Disaster Info.ResourceGoogle EarthGE AnimationAtom FeedGeoJSON
Detalied Best Track (Time Zone = UTC)
Year Month Day Hour Lat. Long. Pressure (hPa) Wind (kt) Class Image Chart
1963 9 7 18 13.0 150.8 1006 0 2 -- Chart
1963 9 8 00 13.0 149.9 1006 0 2 -- Chart
1963 9 8 06 13.0 149.0 1006 0 2 -- Chart
1963 9 8 12 13.1 148.3 1006 0 2 -- Chart
1963 9 8 18 13.2 147.5 1006 0 2 -- Chart
1963 9 9 00 13.2 146.7 1006 0 2 -- Chart
1963 9 9 06 13.3 145.9 1004 0 2 -- Chart
1963 9 9 12 13.4 145.2 1006 0 2 -- Chart
1963 9 9 18 13.5 144.3 1005 0 2 -- Chart
1963 9 10 00 13.6 143.5 1005 0 2 -- Chart
1963 9 10 06 13.8 142.7 1004 0 2 -- Chart
1963 9 10 12 14.0 141.8 1004 0 2 -- Chart
1963 9 10 18 14.2 140.9 1004 0 2 -- Chart
1963 9 11 00 14.3 139.1 1004 0 2 -- Chart
1963 9 11 06 14.8 136.9 1000 0 9 -- Chart
1963 9 11 12 15.5 134.7 1000 0 9 -- Chart
1963 9 11 18 16.9 132.9 1000 0 9 -- Chart
1963 9 12 00 19.2 132.8 998 0 9 -- Chart
1963 9 12 06 21.3 132.8 998 0 9 -- Chart
1963 9 12 12 23.6 132.5 998 0 9 -- Chart
1963 9 12 18 25.0 132.3 998 0 9 -- Chart
1963 9 13 00 26.5 132.6 998 0 9 -- Chart
1963 9 13 06 27.8 133.8 998 0 9 -- Chart
1963 9 13 12 29.0 134.2 998 0 6 -- Chart
1963 9 13 18 30.4 138.4 998 0 6 -- Chart
1963 9 14 00 30.9 140.0 998 0 6 -- Chart
1963 9 14 06 31.6 145.3 998 0 6 -- Chart
1963 9 14 12 32.0 151.2 998 0 6 -- Chart
1963 9 14 18 32.8 157.0 998 0 6 -- Chart
1963 9 15 00 33.8 163.2 998 0 6 -- Chart
1963 9 15 06 34.0 167.1 1002 0 6 -- Chart
1963 9 15 12 34.1 170.2 1002 0 6 -- Chart
1963 9 15 18 34.8 174.1 1008 0 6 -- Chart
1963 9 16 00 35.5 178.5 1010 0 6 -- Chart
1963 9 16 06 36.2 182.1 1010 0 6 -- Chart
Japan Meteorological Agency Best Track Data | Correction Date : 1989-06-01
< Typhoon 196314 1963 Season Typhoon 196316 >

Help